sensor_id;sensor_type;location;lat;lon;timestamp;pressure;altitude;pressure_sealevel;temperature;humidity
49044;BME280;34860;48.066;14.124;2023-01-28T00:00:41;96928.03;;;-1.12;76.48
49044;BME280;34860;48.066;14.124;2023-01-28T00:03:31;96921.34;;;-1.14;76.49
49044;BME280;34860;48.066;14.124;2023-01-28T00:06:19;96923.63;;;-1.16;76.51
49044;BME280;34860;48.066;14.124;2023-01-28T00:09:07;96921.34;;;-1.14;76.46
49044;BME280;34860;48.066;14.124;2023-01-28T00:11:55;96914.66;;;-1.17;76.42
49044;BME280;34860;48.066;14.124;2023-01-28T00:14:43;96914.75;;;-1.13;76.62
49044;BME280;34860;48.066;14.124;2023-01-28T00:17:32;96915.59;;;-1.09;76.47
49044;BME280;34860;48.066;14.124;2023-01-28T00:20:22;96915.59;;;-1.09;76.44
49044;BME280;34860;48.066;14.124;2023-01-28T00:23:10;96919.94;;;-1.08;76.35
49044;BME280;34860;48.066;14.124;2023-01-28T00:25:59;96916.13;;;-1.03;76.40
49044;BME280;34860;48.066;14.124;2023-01-28T00:28:48;96925.09;;;-1.03;76.34
49044;BME280;34860;48.066;14.124;2023-01-28T00:31:36;96916.22;;;-1.00;76.38
49044;BME280;34860;48.066;14.124;2023-01-28T00:34:24;96925.63;;;-0.97;76.25
49044;BME280;34860;48.066;14.124;2023-01-28T00:37:13;96932.22;;;-0.98;76.42
49044;BME280;34860;48.066;14.124;2023-01-28T00:40:01;96927.91;;;-0.99;76.44
49044;BME280;34860;48.066;14.124;2023-01-28T00:42:49;96924.47;;;-0.96;76.36
49044;BME280;34860;48.066;14.124;2023-01-28T00:45:39;96924.13;;;-0.95;76.25
49044;BME280;34860;48.066;14.124;2023-01-28T00:48:27;96926.06;;;-0.95;76.19
49044;BME280;34860;48.066;14.124;2023-01-28T00:51:16;96924.13;;;-0.95;76.32
49044;BME280;34860;48.066;14.124;2023-01-28T00:54:10;96929.56;;;-0.95;76.46
49044;BME280;34860;48.066;14.124;2023-01-28T00:56:58;96926.00;;;-0.99;76.27
49044;BME280;34860;48.066;14.124;2023-01-28T00:59:46;96927.13;;;-1.00;76.46
49044;BME280;34860;48.066;14.124;2023-01-28T01:02:34;96923.69;;;-0.97;76.39
49044;BME280;34860;48.066;14.124;2023-01-28T01:05:24;96929.50;;;-0.98;76.29
49044;BME280;34860;48.066;14.124;2023-01-28T01:08:12;96936.44;;;-1.01;76.45
49044;BME280;34860;48.066;14.124;2023-01-28T01:11:05;96932.94;;;-1.01;76.55
49044;BME280;34860;48.066;14.124;2023-01-28T01:13:54;96931.81;;;-1.00;76.44
49044;BME280;34860;48.066;14.124;2023-01-28T01:16:43;96928.19;;;-1.04;76.38
49044;BME280;34860;48.066;14.124;2023-01-28T01:19:33;96932.78;;;-1.08;76.42
49044;BME280;34860;48.066;14.124;2023-01-28T01:22:21;96926.16;;;-1.07;76.62
49044;BME280;34860;48.066;14.124;2023-01-28T01:25:10;96934.00;;;-1.06;76.49
49044;BME280;34860;48.066;14.124;2023-01-28T01:28:01;96937.44;;;-1.09;76.45
49044;BME280;34860;48.066;14.124;2023-01-28T01:30:49;96931.19;;;-1.10;76.46
49044;BME280;34860;48.066;14.124;2023-01-28T01:33:37;96948.59;;;-1.14;76.43
49044;BME280;34860;48.066;14.124;2023-01-28T01:36:25;96940.34;;;-1.18;76.54
49044;BME280;34860;48.066;14.124;2023-01-28T01:39:13;96938.75;;;-1.19;76.56
49044;BME280;34860;48.066;14.124;2023-01-28T01:42:01;96946.22;;;-1.16;76.61
49044;BME280;34860;48.066;14.124;2023-01-28T01:44:55;96945.88;;;-1.14;76.68
49044;BME280;34860;48.066;14.124;2023-01-28T01:47:47;96948.69;;;-1.11;76.51
49044;BME280;34860;48.066;14.124;2023-01-28T01:50:39;96937.44;;;-1.09;76.50
49044;BME280;34860;48.066;14.124;2023-01-28T01:53:30;96945.25;;;-1.07;76.37
49044;BME280;34860;48.066;14.124;2023-01-28T01:56:22;96947.19;;;-1.08;76.27
49044;BME280;34860;48.066;14.124;2023-01-28T01:59:14;96944.75;;;-1.13;76.34
49044;BME280;34860;48.066;14.124;2023-01-28T02:02:06;96942.38;;;-1.15;76.55
49044;BME280;34860;48.066;14.124;2023-01-28T02:04:56;96954.00;;;-1.18;76.40
49044;BME280;34860;48.066;14.124;2023-01-28T02:07:46;96947.72;;;-1.18;76.51
49044;BME280;34860;48.066;14.124;2023-01-28T02:10:36;96951.63;;;-1.19;76.58
49044;BME280;34860;48.066;14.124;2023-01-28T02:13:26;96950.00;;;-1.20;76.38
49044;BME280;34860;48.066;14.124;2023-01-28T02:16:18;96952.75;;;-1.20;76.53
49044;BME280;34860;48.066;14.124;2023-01-28T02:19:08;96948.78;;;-1.23;76.53
49044;BME280;34860;48.066;14.124;2023-01-28T02:22:08;96951.97;;;-1.21;76.51
49044;BME280;34860;48.066;14.124;2023-01-28T02:25:29;96951.97;;;-1.21;76.55
49044;BME280;34860;48.066;14.124;2023-01-28T02:28:26;96948.41;;;-1.21;76.65
49044;BME280;34860;48.066;14.124;2023-01-28T02:31:23;96945.25;;;-1.23;76.37
49044;BME280;34860;48.066;14.124;2023-01-28T02:34:18;96951.50;;;-1.23;76.50
49044;BME280;34860;48.066;14.124;2023-01-28T02:37:14;96953.09;;;-1.22;76.50
49044;BME280;34860;48.066;14.124;2023-01-28T02:40:08;96952.38;;;-1.19;76.56
49044;BME280;34860;48.066;14.124;2023-01-28T02:42:57;96949.75;;;-1.15;76.48
49044;BME280;34860;48.066;14.124;2023-01-28T02:45:47;96951.25;;;-1.18;76.32
49044;BME280;34860;48.066;14.124;2023-01-28T02:48:53;96949.66;;;-1.19;76.36
49044;BME280;34860;48.066;14.124;2023-01-28T02:51:53;96948.97;;;-1.16;76.45
49044;BME280;34860;48.066;14.124;2023-01-28T02:54:52;96952.75;;;-1.20;76.38
49044;BME280;34860;48.066;14.124;2023-01-28T02:57:53;96958.56;;;-1.22;76.46
49044;BME280;34860;48.066;14.124;2023-01-28T03:00:49;96955.03;;;-1.22;76.41
49044;BME280;34860;48.066;14.124;2023-01-28T03:03:49;96954.59;;;-1.24;76.35
49044;BME280;34860;48.066;14.124;2023-01-28T03:06:44;96957.69;;;-1.26;76.44
49044;BME280;34860;48.066;14.124;2023-01-28T03:09:35;96960.06;;;-1.24;76.46
49044;BME280;34860;48.066;14.124;2023-01-28T03:12:25;96956.16;;;-1.23;76.55
49044;BME280;34860;48.066;14.124;2023-01-28T03:15:34;96962.88;;;-1.21;76.48
49044;BME280;34860;48.066;14.124;2023-01-28T03:18:48;96962.78;;;-1.24;76.44
49044;BME280;34860;48.066;14.124;2023-01-28T03:21:55;96965.41;;;-1.28;76.34
49044;BME280;34860;48.066;14.124;2023-01-28T03:25:02;96967.78;;;-1.26;76.46
49044;BME280;34860;48.066;14.124;2023-01-28T03:28:11;96965.88;;;-1.26;76.40
49044;BME280;34860;48.066;14.124;2023-01-28T03:31:21;96962.31;;;-1.26;76.48
49044;BME280;34860;48.066;14.124;2023-01-28T03:34:31;96964.69;;;-1.25;76.44
49044;BME280;34860;48.066;14.124;2023-01-28T03:37:37;96974.06;;;-1.26;76.29
49044;BME280;34860;48.066;14.124;2023-01-28T03:40:48;96974.84;;;-1.25;76.56
49044;BME280;34860;48.066;14.124;2023-01-28T03:43:37;96983.00;;;-1.25;76.52
49044;BME280;34860;48.066;14.124;2023-01-28T03:46:25;96983.44;;;-1.23;76.45
49044;BME280;34860;48.066;14.124;2023-01-28T03:49:14;96981.50;;;-1.23;76.48
49044;BME280;34860;48.066;14.124;2023-01-28T03:52:04;96977.22;;;-1.24;76.41
49044;BME280;34860;48.066;14.124;2023-01-28T03:54:52;96976.41;;;-1.24;76.41
49044;BME280;34860;48.066;14.124;2023-01-28T03:57:41;96978.00;;;-1.23;76.54
49044;BME280;34860;48.066;14.124;2023-01-28T04:00:31;96981.88;;;-1.24;76.47
49044;BME280;34860;48.066;14.124;2023-01-28T04:03:20;96982.66;;;-1.24;76.49
49044;BME280;34860;48.066;14.124;2023-01-28T04:06:17;96979.94;;;-1.24;76.54
49044;BME280;34860;48.066;14.124;2023-01-28T04:09:18;96981.06;;;-1.25;76.53
49044;BME280;34860;48.066;14.124;2023-01-28T04:12:14;96984.59;;;-1.24;76.58
49044;BME280;34860;48.066;14.124;2023-01-28T04:15:08;96990.41;;;-1.26;76.41
49044;BME280;34860;48.066;14.124;2023-01-28T04:18:04;96993.13;;;-1.26;76.53
49044;BME280;34860;48.066;14.124;2023-01-28T04:20:53;96990.28;;;-1.30;76.48
49044;BME280;34860;48.066;14.124;2023-01-28T04:23:41;97003.56;;;-1.28;76.67
49044;BME280;34860;48.066;14.124;2023-01-28T04:26:33;96998.59;;;-1.26;76.61
49044;BME280;34860;48.066;14.124;2023-01-28T04:29:21;97004.13;;;-1.22;76.44
49044;BME280;34860;48.066;14.124;2023-01-28T04:32:11;97010.00;;;-1.20;76.56
49044;BME280;34860;48.066;14.124;2023-01-28T04:35:19;97008.88;;;-1.19;76.39
49044;BME280;34860;48.066;14.124;2023-01-28T04:38:29;97005.34;;;-1.20;76.46
49044;BME280;34860;48.066;14.124;2023-01-28T04:41:24;97011.94;;;-1.21;76.51
49044;BME280;34860;48.066;14.124;2023-01-28T04:44:14;97005.25;;;-1.23;76.46
49044;BME280;34860;48.066;14.124;2023-01-28T04:47:20;97013.34;;;-1.27;76.51
49044;BME280;34860;48.066;14.124;2023-01-28T04:50:27;97013.00;;;-1.25;76.45
49044;BME280;34860;48.066;14.124;2023-01-28T04:53:35;97016.16;;;-1.23;76.58
49044;BME280;34860;48.066;14.124;2023-01-28T04:56:41;97019.66;;;-1.23;76.40
49044;BME280;34860;48.066;14.124;2023-01-28T04:59:30;97021.25;;;-1.22;76.56
49044;BME280;34860;48.066;14.124;2023-01-28T05:02:18;97025.94;;;-1.22;76.54
49044;BME280;34860;48.066;14.124;2023-01-28T05:05:07;97026.72;;;-1.22;76.47
49044;BME280;34860;48.066;14.124;2023-01-28T05:08:14;97026.03;;;-1.19;76.46
49044;BME280;34860;48.066;14.124;2023-01-28T05:11:04;97037.38;;;-1.17;76.48
49044;BME280;34860;48.066;14.124;2023-01-28T05:13:53;97033.94;;;-1.14;76.41
49044;BME280;34860;48.066;14.124;2023-01-28T05:16:43;97027.69;;;-1.14;76.39
49044;BME280;34860;48.066;14.124;2023-01-28T05:19:31;97033.94;;;-1.14;76.42
49044;BME280;34860;48.066;14.124;2023-01-28T05:22:20;97032.81;;;-1.13;76.40
49044;BME280;34860;48.066;14.124;2023-01-28T05:25:41;97045.75;;;-1.10;76.40
49044;BME280;34860;48.066;14.124;2023-01-28T05:28:29;97048.91;;;-1.07;76.27
49044;BME280;34860;48.066;14.124;2023-01-28T05:31:17;97050.50;;;-1.06;76.31
49044;BME280;34860;48.066;14.124;2023-01-28T05:34:06;97053.22;;;-1.06;76.24
49044;BME280;34860;48.066;14.124;2023-01-28T05:36:55;97054.78;;;-1.05;76.43
49044;BME280;34860;48.066;14.124;2023-01-28T05:39:48;97053.66;;;-1.04;76.40
49044;BME280;34860;48.066;14.124;2023-01-28T05:42:36;97064.66;;;-1.01;76.51
49044;BME280;34860;48.066;14.124;2023-01-28T05:45:43;97069.88;;;-0.96;76.31
49044;BME280;34860;48.066;14.124;2023-01-28T05:48:41;97071.09;;;-0.93;76.38
49044;BME280;34860;48.066;14.124;2023-01-28T05:51:51;97061.34;;;-0.94;76.24
49044;BME280;34860;48.066;14.124;2023-01-28T05:54:41;97069.53;;;-0.94;76.40
49044;BME280;34860;48.066;14.124;2023-01-28T05:57:29;97079.34;;;-0.89;76.43
49044;BME280;34860;48.066;14.124;2023-01-28T06:00:18;97082.19;;;-0.86;76.28
49044;BME280;34860;48.066;14.124;2023-01-28T06:03:06;97092.84;;;-0.81;76.39
49044;BME280;34860;48.066;14.124;2023-01-28T06:05:55;97088.63;;;-0.78;76.26
49044;BME280;34860;48.066;14.124;2023-01-28T06:08:44;97092.50;;;-0.79;76.33
49044;BME280;34860;48.066;14.124;2023-01-28T06:11:39;97094.44;;;-0.80;76.19
49044;BME280;34860;48.066;14.124;2023-01-28T06:14:26;97087.28;;;-0.84;76.32
49044;BME280;34860;48.066;14.124;2023-01-28T06:17:29;97092.22;;;-0.90;76.27
49044;BME280;34860;48.066;14.124;2023-01-28T06:20:25;97083.03;;;-0.98;76.36
49044;BME280;34860;48.066;14.124;2023-01-28T06:23:15;97089.03;;;-1.08;76.67
49044;BME280;34860;48.066;14.124;2023-01-28T06:26:05;97092.03;;;-1.13;76.72
49044;BME280;34860;48.066;14.124;2023-01-28T06:28:54;97104.41;;;-1.16;76.79
49044;BME280;34860;48.066;14.124;2023-01-28T06:31:44;97110.31;;;-1.14;76.76
49044;BME280;34860;48.066;14.124;2023-01-28T06:34:32;97105.31;;;-1.12;76.68
49044;BME280;34860;48.066;14.124;2023-01-28T06:37:20;97113.84;;;-1.13;76.48
49044;BME280;34860;48.066;14.124;2023-01-28T06:40:11;97114.19;;;-1.15;76.53
49044;BME280;34860;48.066;14.124;2023-01-28T06:43:01;97117.63;;;-1.18;76.53
49044;BME280;34860;48.066;14.124;2023-01-28T06:45:48;97109.78;;;-1.19;76.65
49044;BME280;34860;48.066;14.124;2023-01-28T06:48:37;97117.16;;;-1.20;76.53
49044;BME280;34860;48.066;14.124;2023-01-28T06:51:25;97114.06;;;-1.18;76.66
49044;BME280;34860;48.066;14.124;2023-01-28T06:54:13;97121.69;;;-1.12;76.52
49044;BME280;34860;48.066;14.124;2023-01-28T06:57:01;97118.94;;;-1.12;76.55
49044;BME280;34860;48.066;14.124;2023-01-28T06:59:50;97122.81;;;-1.13;76.52
49044;BME280;34860;48.066;14.124;2023-01-28T07:02:39;97121.56;;;-1.15;76.47
49044;BME280;34860;48.066;14.124;2023-01-28T07:05:27;97125.09;;;-1.15;76.46
49044;BME280;34860;48.066;14.124;2023-01-28T07:08:15;97125.53;;;-1.13;76.63
49044;BME280;34860;48.066;14.124;2023-01-28T07:11:03;97130.28;;;-1.10;76.57
49044;BME280;34860;48.066;14.124;2023-01-28T07:13:51;97132.25;;;-1.10;76.54
49044;BME280;34860;48.066;14.124;2023-01-28T07:16:40;97144.03;;;-1.06;76.55
49044;BME280;34860;48.066;14.124;2023-01-28T07:19:28;97131.97;;;-1.05;76.52
49044;BME280;34860;48.066;14.124;2023-01-28T07:22:16;97136.75;;;-1.02;76.58
49044;BME280;34860;48.066;14.124;2023-01-28T07:25:05;97137.59;;;-0.98;76.36
49044;BME280;34860;48.066;14.124;2023-01-28T07:27:54;97144.31;;;-0.95;76.34
49044;BME280;34860;48.066;14.124;2023-01-28T07:30:42;97134.53;;;-0.96;76.49
49044;BME280;34860;48.066;14.124;2023-01-28T07:33:31;97149.34;;;-0.97;76.55
49044;BME280;34860;48.066;14.124;2023-01-28T07:36:19;97152.50;;;-0.95;76.46
49044;BME280;34860;48.066;14.124;2023-01-28T07:39:07;97154.44;;;-0.96;76.43
49044;BME280;34860;48.066;14.124;2023-01-28T07:41:55;97163.41;;;-0.95;76.47
49044;BME280;34860;48.066;14.124;2023-01-28T07:44:51;97160.25;;;-0.97;76.52
49044;BME280;34860;48.066;14.124;2023-01-28T07:47:38;97156.34;;;-0.96;76.67
49044;BME280;34860;48.066;14.124;2023-01-28T07:50:29;97153.53;;;-1.00;76.53
49044;BME280;34860;48.066;14.124;2023-01-28T07:53:18;97161.03;;;-0.97;76.61
49044;BME280;34860;48.066;14.124;2023-01-28T07:56:07;97174.41;;;-0.92;76.52
49044;BME280;34860;48.066;14.124;2023-01-28T07:58:54;97167.72;;;-0.94;76.36
49044;BME280;34860;48.066;14.124;2023-01-28T08:01:42;97172.72;;;-0.96;76.57
49044;BME280;34860;48.066;14.124;2023-01-28T08:04:30;97174.22;;;-0.99;76.64
49044;BME280;34860;48.066;14.124;2023-01-28T08:07:20;97173.53;;;-0.96;76.68
49044;BME280;34860;48.066;14.124;2023-01-28T08:10:09;97176.44;;;-0.88;76.53
49044;BME280;34860;48.066;14.124;2023-01-28T08:12:58;97176.78;;;-0.90;76.57
49044;BME280;34860;48.066;14.124;2023-01-28T08:15:46;97181.47;;;-0.90;76.46
49044;BME280;34860;48.066;14.124;2023-01-28T08:18:34;97187.34;;;-0.88;76.51
49044;BME280;34860;48.066;14.124;2023-01-28T08:21:22;97189.13;;;-0.80;76.64
49044;BME280;34860;48.066;14.124;2023-01-28T08:24:11;97192.31;;;-0.78;76.33
49044;BME280;34860;48.066;14.124;2023-01-28T08:26:59;97186.88;;;-0.78;76.48
49044;BME280;34860;48.066;14.124;2023-01-28T08:29:47;97191.72;;;-0.71;76.48
49044;BME280;34860;48.066;14.124;2023-01-28T08:32:36;97189.06;;;-0.68;76.34
49044;BME280;34860;48.066;14.124;2023-01-28T08:35:24;97184.41;;;-0.67;76.41
49044;BME280;34860;48.066;14.124;2023-01-28T08:38:13;97192.34;;;-0.62;76.42
49044;BME280;34860;48.066;14.124;2023-01-28T08:41:04;97189.00;;;-0.56;76.37
49044;BME280;34860;48.066;14.124;2023-01-28T08:43:52;97194.19;;;-0.50;76.41
49044;BME280;34860;48.066;14.124;2023-01-28T08:46:40;97195.88;;;-0.46;76.44
49044;BME280;34860;48.066;14.124;2023-01-28T08:49:28;97200.38;;;-0.38;76.26
49044;BME280;34860;48.066;14.124;2023-01-28T08:52:16;97199.06;;;-0.28;76.31
49044;BME280;34860;48.066;14.124;2023-01-28T08:55:05;97196.41;;;-0.24;76.14
49044;BME280;34860;48.066;14.124;2023-01-28T08:57:55;97193.66;;;-0.24;76.18
49044;BME280;34860;48.066;14.124;2023-01-28T09:00:44;97198.34;;;-0.25;76.23
49044;BME280;34860;48.066;14.124;2023-01-28T09:03:33;97207.69;;;-0.26;76.21
49044;BME280;34860;48.066;14.124;2023-01-28T09:06:23;97199.47;;;-0.26;76.34
49044;BME280;34860;48.066;14.124;2023-01-28T09:09:11;97204.25;;;-0.23;76.46
49044;BME280;34860;48.066;14.124;2023-01-28T09:11:59;97202.69;;;-0.24;76.30
49044;BME280;34860;48.066;14.124;2023-01-28T09:14:49;97204.59;;;-0.24;76.55
49044;BME280;34860;48.066;14.124;2023-01-28T09:17:38;97213.06;;;-0.29;76.30
49044;BME280;34860;48.066;14.124;2023-01-28T09:20:26;97209.00;;;-0.35;76.47
49044;BME280;34860;48.066;14.124;2023-01-28T09:23:14;97207.78;;;-0.38;76.56
49044;BME280;34860;48.066;14.124;2023-01-28T09:26:03;97218.72;;;-0.38;76.56
49044;BME280;34860;48.066;14.124;2023-01-28T09:28:52;97220.88;;;-0.44;76.61
49044;BME280;34860;48.066;14.124;2023-01-28T09:31:41;97223.28;;;-0.42;76.68
49044;BME280;34860;48.066;14.124;2023-01-28T09:34:30;97225.66;;;-0.41;76.56
49044;BME280;34860;48.066;14.124;2023-01-28T09:37:18;97231.09;;;-0.41;76.44
49044;BME280;34860;48.066;14.124;2023-01-28T09:40:08;97225.22;;;-0.43;76.69
49044;BME280;34860;48.066;14.124;2023-01-28T09:43:11;97227.94;;;-0.43;76.58
49044;BME280;34860;48.066;14.124;2023-01-28T09:46:08;97221.59;;;-0.47;76.63
49044;BME280;34860;48.066;14.124;2023-01-28T09:49:19;97221.50;;;-0.50;76.52
49044;BME280;34860;48.066;14.124;2023-01-28T09:52:12;97218.91;;;-0.59;76.46
49044;BME280;34860;48.066;14.124;2023-01-28T09:55:04;97214.88;;;-0.65;76.68
49044;BME280;34860;48.066;14.124;2023-01-28T09:57:54;97212.38;;;-0.70;76.68
49044;BME280;34860;48.066;14.124;2023-01-28T10:00:51;97210.91;;;-0.68;76.78
49044;BME280;34860;48.066;14.124;2023-01-28T10:03:48;97220.34;;;-0.65;76.73
49044;BME280;34860;48.066;14.124;2023-01-28T10:06:46;97208.97;;;-0.67;76.72
49044;BME280;34860;48.066;14.124;2023-01-28T10:09:42;97212.16;;;-0.65;76.64
49044;BME280;34860;48.066;14.124;2023-01-28T10:12:43;97211.47;;;-0.62;76.75
49044;BME280;34860;48.066;14.124;2023-01-28T10:15:46;97202.88;;;-0.61;76.61
49044;BME280;34860;48.066;14.124;2023-01-28T10:18:44;97206.00;;;-0.62;76.52
49044;BME280;34860;48.066;14.124;2023-01-28T10:21:37;97200.63;;;-0.59;76.54
49044;BME280;34860;48.066;14.124;2023-01-28T10:24:32;97202.66;;;-0.56;76.55
49044;BME280;34860;48.066;14.124;2023-01-28T10:27:25;97203.44;;;-0.55;76.58
49044;BME280;34860;48.066;14.124;2023-01-28T10:30:17;97198.75;;;-0.55;76.48
49044;BME280;34860;48.066;14.124;2023-01-28T10:33:14;97203.97;;;-0.49;76.39
49044;BME280;34860;48.066;14.124;2023-01-28T10:36:04;97202.03;;;-0.49;76.46
49044;BME280;34860;48.066;14.124;2023-01-28T10:38:52;97202.31;;;-0.54;76.34
49044;BME280;34860;48.066;14.124;2023-01-28T10:41:41;97201.06;;;-0.57;76.64
49044;BME280;34860;48.066;14.124;2023-01-28T10:44:43;97202.19;;;-0.58;76.42
49044;BME280;34860;48.066;14.124;2023-01-28T10:47:36;97198.75;;;-0.55;76.53
49044;BME280;34860;48.066;14.124;2023-01-28T10:54:59;97203.44;;;-0.55;76.48
49044;BME280;34860;48.066;14.124;2023-01-28T10:57:49;97203.09;;;-0.53;76.59
49044;BME280;34860;48.066;14.124;2023-01-28T11:00:37;97200.00;;;-0.52;76.59
49044;BME280;34860;48.066;14.124;2023-01-28T11:03:26;97207.84;;;-0.50;76.62
49044;BME280;34860;48.066;14.124;2023-01-28T11:06:23;97201.16;;;-0.53;76.58
49044;BME280;34860;48.066;14.124;2023-01-28T11:09:20;97189.00;;;-0.56;76.58
49044;BME280;34860;48.066;14.124;2023-01-28T11:12:16;97197.53;;;-0.57;76.66
49044;BME280;34860;48.066;14.124;2023-01-28T11:15:16;97197.19;;;-0.56;76.72
49044;BME280;34860;48.066;14.124;2023-01-28T11:18:15;97196.03;;;-0.55;76.59
49044;BME280;34860;48.066;14.124;2023-01-28T11:21:06;97196.84;;;-0.54;76.59
49044;BME280;34860;48.066;14.124;2023-01-28T11:24:02;97201.97;;;-0.52;76.58
49044;BME280;34860;48.066;14.124;2023-01-28T11:26:53;97202.31;;;-0.54;76.56
49044;BME280;34860;48.066;14.124;2023-01-28T11:29:42;97203.88;;;-0.53;76.55
49044;BME280;34860;48.066;14.124;2023-01-28T11:32:32;97197.28;;;-0.52;76.51
49044;BME280;34860;48.066;14.124;2023-01-28T11:35:24;97202.47;;;-0.47;76.55
49044;BME280;34860;48.066;14.124;2023-01-28T11:38:17;97204.59;;;-0.40;76.43
49044;BME280;34860;48.066;14.124;2023-01-28T11:41:13;97201.06;;;-0.41;76.73
49044;BME280;34860;48.066;14.124;2023-01-28T11:44:12;97203.72;;;-0.44;76.24
49044;BME280;34860;48.066;14.124;2023-01-28T11:47:30;97203.72;;;-0.44;76.62
49044;BME280;34860;48.066;14.124;2023-01-28T11:50:32;97201.41;;;-0.42;76.54
49044;BME280;34860;48.066;14.124;2023-01-28T11:53:33;97205.41;;;-0.40;76.36
49044;BME280;34860;48.066;14.124;2023-01-28T11:56:38;97194.13;;;-0.38;76.37
49044;BME280;34860;48.066;14.124;2023-01-28T11:59:40;97209.97;;;-0.44;76.54
49044;BME280;34860;48.066;14.124;2023-01-28T12:02:47;97210.22;;;-0.49;76.57
49044;BME280;34860;48.066;14.124;2023-01-28T12:05:45;97212.19;;;-0.49;76.52
49044;BME280;34860;48.066;14.124;2023-01-28T12:08:39;97210.84;;;-0.56;76.60
49044;BME280;34860;48.066;14.124;2023-01-28T12:11:35;97217.44;;;-0.57;76.61
49044;BME280;34860;48.066;14.124;2023-01-28T12:15:04;97206.34;;;-0.64;76.64
49044;BME280;34860;48.066;14.124;2023-01-28T12:18:06;97207.91;;;-0.63;76.92
49044;BME280;34860;48.066;14.124;2023-01-28T12:21:03;97213.63;;;-0.68;76.63
49044;BME280;34860;48.066;14.124;2023-01-28T12:24:05;97208.72;;;-0.62;76.60
49044;BME280;34860;48.066;14.124;2023-01-28T12:27:04;97215.59;;;-0.68;76.67
49044;BME280;34860;48.066;14.124;2023-01-28T12:30:05;97203.41;;;-0.71;76.59
49044;BME280;34860;48.066;14.124;2023-01-28T12:33:11;97212.72;;;-0.72;76.60
49044;BME280;34860;48.066;14.124;2023-01-28T12:36:15;97210.69;;;-0.75;76.74
49044;BME280;34860;48.066;14.124;2023-01-28T12:39:18;97207.53;;;-0.77;76.68
49044;BME280;34860;48.066;14.124;2023-01-28T12:51:46;97208.44;;;-0.73;76.38
49044;BME280;34860;48.066;14.124;2023-01-28T12:59:12;97207.81;;;-0.66;76.50
49044;BME280;34860;48.066;14.124;2023-01-28T13:02:16;97214.97;;;-0.62;76.40
49044;BME280;34860;48.066;14.124;2023-01-28T13:05:13;97213.47;;;-0.59;76.38
49044;BME280;34860;48.066;14.124;2023-01-28T13:08:09;97217.00;;;-0.59;76.51
49044;BME280;34860;48.066;14.124;2023-01-28T13:10:59;97213.03;;;-0.61;76.45
49044;BME280;34860;48.066;14.124;2023-01-28T13:13:48;97221.56;;;-0.63;76.33
49044;BME280;34860;48.066;14.124;2023-01-28T13:16:36;97216.00;;;-0.66;76.34
49044;BME280;34860;48.066;14.124;2023-01-28T13:19:35;97219.66;;;-0.62;76.46
49044;BME280;34860;48.066;14.124;2023-01-28T13:22:29;97222.47;;;-0.59;76.47
49044;BME280;34860;48.066;14.124;2023-01-28T13:25:22;97224.50;;;-0.56;76.28
49044;BME280;34860;48.066;14.124;2023-01-28T13:28:26;97231.88;;;-0.56;76.41
49044;BME280;34860;48.066;14.124;2023-01-28T13:31:16;97228.28;;;-0.60;76.37
49044;BME280;34860;48.066;14.124;2023-01-28T13:34:06;97232.69;;;-0.56;76.37
49044;BME280;34860;48.066;14.124;2023-01-28T13:36:56;97233.47;;;-0.55;76.40
49044;BME280;34860;48.066;14.124;2023-01-28T13:39:48;97233.81;;;-0.57;76.34
49044;BME280;34860;48.066;14.124;2023-01-28T13:42:38;97233.72;;;-0.60;76.44
49044;BME280;34860;48.066;14.124;2023-01-28T13:45:27;97238.16;;;-0.56;76.47
49044;BME280;34860;48.066;14.124;2023-01-28T13:48:22;97246.22;;;-0.59;76.46
49044;BME280;34860;48.066;14.124;2023-01-28T13:51:19;97230.31;;;-0.57;76.41
49044;BME280;34860;48.066;14.124;2023-01-28T13:54:13;97243.13;;;-0.58;76.58
49044;BME280;34860;48.066;14.124;2023-01-28T13:57:18;97245.16;;;-0.55;76.53
49044;BME280;34860;48.066;14.124;2023-01-28T14:00:21;97245.28;;;-0.51;76.21
49044;BME280;34860;48.066;14.124;2023-01-28T14:03:39;97247.19;;;-0.51;76.44
49044;BME280;34860;48.066;14.124;2023-01-28T14:06:57;97248.88;;;-0.47;76.37
49044;BME280;34860;48.066;14.124;2023-01-28T14:09:59;97254.00;;;-0.45;76.42
49044;BME280;34860;48.066;14.124;2023-01-28T14:13:04;97251.28;;;-0.45;76.46
49044;BME280;34860;48.066;14.124;2023-01-28T14:15:59;97252.53;;;-0.43;76.41
49044;BME280;34860;48.066;14.124;2023-01-28T14:18:49;97254.34;;;-0.47;76.25
49044;BME280;34860;48.066;14.124;2023-01-28T14:21:38;97251.19;;;-0.49;76.47
49044;BME280;34860;48.066;14.124;2023-01-28T14:24:26;97253.22;;;-0.46;76.35
49044;BME280;34860;48.066;14.124;2023-01-28T14:27:17;97267.66;;;-0.45;76.37
49044;BME280;34860;48.066;14.124;2023-01-28T14:30:15;97266.97;;;-0.42;76.41
49044;BME280;34860;48.066;14.124;2023-01-28T14:33:08;97271.72;;;-0.39;76.29
49044;BME280;34860;48.066;14.124;2023-01-28T14:35:57;97271.81;;;-0.35;76.41
49044;BME280;34860;48.066;14.124;2023-01-28T14:38:46;97276.47;;;-0.36;76.23
49044;BME280;34860;48.066;14.124;2023-01-28T14:41:34;97273.41;;;-0.34;76.40
49044;BME280;34860;48.066;14.124;2023-01-28T14:44:27;97275.78;;;-0.33;76.23
49044;BME280;34860;48.066;14.124;2023-01-28T14:47:35;97278.09;;;-0.35;76.41
49044;BME280;34860;48.066;14.124;2023-01-28T14:50:41;97280.56;;;-0.30;76.35
49044;BME280;34860;48.066;14.124;2023-01-28T14:53:46;97286.38;;;-0.31;76.34
49044;BME280;34860;48.066;14.124;2023-01-28T14:56:50;97277.28;;;-0.35;76.28
49044;BME280;34860;48.066;14.124;2023-01-28T14:59:44;97283.97;;;-0.33;76.35
49044;BME280;34860;48.066;14.124;2023-01-28T15:02:42;97274.66;;;-0.32;76.26
49044;BME280;34860;48.066;14.124;2023-01-28T15:05:31;97280.91;;;-0.31;76.45
49044;BME280;34860;48.066;14.124;2023-01-28T15:08:20;97292.16;;;-0.33;76.75
49044;BME280;34860;48.066;14.124;2023-01-28T15:11:12;97297.28;;;-0.31;76.40
49044;BME280;34860;48.066;14.124;2023-01-28T15:14:01;97293.38;;;-0.30;76.37
49044;BME280;34860;48.066;14.124;2023-01-28T15:16:52;97303.97;;;-0.29;76.16
49044;BME280;34860;48.066;14.124;2023-01-28T15:19:40;97303.53;;;-0.31;76.23
49044;BME280;34860;48.066;14.124;2023-01-28T15:22:29;97305.56;;;-0.28;76.45
49044;BME280;34860;48.066;14.124;2023-01-28T15:25:19;97307.84;;;-0.30;76.48